Time;durP1;ratioP1;P1;durP2;ratioP2;P2;SDS_P1;SDS_P2;PMS_P1;PMS_P2;Temp;Humidity;BMP_temperature;BMP_pressure;BME280_temperature;BME280_humidity;BME280_pressure;Samples;Min_cycle;Max_cycle;Signal;HPM_P1;HPM_P2
2022/05/18 00:05:40;;;;;;;;;;;;;;;;;;21080687;28;19932;-71
2022/05/18 00:15:42;;;;;;;;;;;;;;;;;;21095062;28;19924;-71
2022/05/18 00:25:44;;;;;;;;;;;;;;;;;;21095148;28;20284;-74
2022/05/18 00:35:46;;;;;;;;;;;;;;;;;;21094108;28;19975;-73
2022/05/18 00:45:47;;;;;;;;;;;;;;;;;;21092229;28;19924;-70
2022/05/18 00:55:49;;;;;;;;;;;;;;;;;;21093061;28;20009;-70
2022/05/18 01:05:51;;;;;;;;;;;;;;;;;;21091356;28;20380;-73
2022/05/18 01:15:53;;;;;;;;;;;;;;;;;;21091389;28;19969;-73
2022/05/18 01:25:56;;;;;;;;;;;;;;;;;;21095095;28;20019;-70
2022/05/18 01:36:00;;;;;;;;;;;21.10;53.50;;;;;;21104868;28;19981;-66
2022/05/18 01:46:03;;;;;;;;;;;;;;;;;;21069708;28;20027;-65
2022/05/18 01:56:09;;;;;;;;;;;;;;;;;;21087160;28;20273;-63
2022/05/18 02:06:13;;;;;;;;;;;21.30;53.20;;;;;;21086489;28;19924;-63
2022/05/18 02:16:18;;;;;;;;;;;20.30;56.10;;;;;;21085540;28;19932;-64
2022/05/18 02:26:21;;;;;;;;;;;;;;;;;;21084351;28;19984;-68
2022/05/18 02:36:34;;;;;;;;;;;20.90;54.70;;;;;;21097885;28;20243;-65
2022/05/18 02:46:39;;;;;;;;;;;;;;;;;;21082189;28;19930;-63
2022/05/18 02:56:41;;;;;;;;;;;;;;;;;;21085944;28;19931;-63
2022/05/18 03:06:42;;;;;;;;;;;;;;;;;;21081096;28;20299;-69
2022/05/18 03:16:46;;;;;;;;;;;;;;;;;;21080226;28;19977;-62
2022/05/18 03:26:47;;;;;;;;;;;;;;;;;;21095263;28;19924;-64
2022/05/18 03:36:49;;;;;;;;;;;;;;;;;;21080450;28;20025;-68
2022/05/18 03:46:50;;;;;;;;;;;20.00;57.30;;;;;;21077363;28;19981;-64
2022/05/18 03:56:52;;;;;;;;;;;;;;;;;;21077927;28;19931;-66
2022/05/18 04:06:53;;;;;;;;;;;;;;;;;;21078737;28;19931;-73
2022/05/18 04:16:55;;;;;;;;;;;;;;;;;;21077838;28;20007;-73
2022/05/18 04:26:57;;;;;;;;;;;19.40;58.20;;;;;;21078375;28;19977;-65
2022/05/18 04:36:59;;;;;;;;;;;19.40;58.20;;;;;;21076897;28;19924;-62
2022/05/18 04:47:01;;;;;;;;;;;18.20;61.30;;;;;;21077042;28;20372;-72
2022/05/18 04:57:03;;;;;;;;;;;18.90;60.10;;;;;;21085998;28;19925;-68
2022/05/18 05:07:05;;;;;;;;;;;17.90;62.50;;;;;;21096409;28;19924;-66
2022/05/18 05:17:07;;;;;;;;;;;17.70;63.30;;;;;;21093983;28;19924;-64
2022/05/18 05:27:09;;;;;;;;;;;17.70;63.40;;;;;;21095301;28;19925;-66
2022/05/18 05:37:10;;;;;;;;;;;17.70;63.40;;;;;;21090577;28;20352;-64
2022/05/18 05:47:12;;;;;;;;;;;17.90;62.90;;;;;;21088192;28;19930;-72
2022/05/18 05:57:14;;;;;;;;;;;18.10;62.40;;;;;;21087366;28;20295;-67
2022/05/18 06:07:15;;;;;;;;;;;18.20;61.90;;;;;;21086528;28;20018;-63
2022/05/18 06:17:17;;;;;;;;;;;18.30;61.90;;;;;;21086191;28;19970;-62
2022/05/18 06:27:20;;;;;;;;;;;18.50;61.40;;;;;;21085680;28;19928;-64
2022/05/18 06:37:22;;;;;;;;;;;18.70;60.70;;;;;;21085277;28;19924;-70
2022/05/18 06:47:23;;;;;;;;;;;;;;;;;;21086041;28;19996;-75
2022/05/18 06:57:25;;;;;;;;;;;20.20;57.50;;;;;;21085454;28;19931;-74
2022/05/18 07:07:27;;;;;;;;;;;21.40;54.20;;;;;;21093537;28;19931;-71
2022/05/18 07:17:29;;;;;;;;;;;;;;;;;;20995312;28;19924;-57
2022/05/18 07:27:31;;;;;;;;;;;;;;;;;;20980245;28;19932;-59
2022/05/18 07:37:33;;;;;;;;;;;;;;;;;;21001618;28;19925;-72
2022/05/18 07:47:34;;;;;;;;;;;24.70;46.40;;;;;;20999020;28;20016;-72
2022/05/18 07:57:36;;;;;;;;;;;;;;;;;;20979226;28;20300;-77
2022/05/18 08:07:40;;;;;;;;;;;25.00;45.20;;;;;;20996370;28;20273;-76
2022/05/18 08:17:43;;;;;;;;;;;;;;;;;;20995239;28;19924;-75
2022/05/18 08:27:46;;;;;;;;;;;26.40;42.50;;;;;;20997476;28;19931;-77
2022/05/18 08:37:48;;;;;;;;;;;27.30;40.00;;;;;;21011940;28;19964;-76
2022/05/18 08:47:51;;;;;;;;;;;;;;;;;;21009391;28;19928;-77
2022/05/18 08:57:53;;;;;;;;;;;;;;;;;;21022056;28;19926;-77
2022/05/18 09:07:55;;;;;;;;;;;;;;;;;;21013013;28;19929;-73
2022/05/18 09:17:59;;;;;;;;;;;;;;;;;;21010355;28;20139;-65
2022/05/18 09:28:04;;;;;;;;;;;28.60;36.30;;;;;;21005891;28;19925;-76
2022/05/18 09:38:09;;;;;;;;;;;27.90;37.20;;;;;;21004842;28;20363;-76
2022/05/18 09:48:15;;;;;;;;;;;27.60;36.60;;;;;;21003111;28;19928;-59
2022/05/18 09:58:21;;;;;;;;;;;27.80;36.60;;;;;;21000987;28;19931;-58
2022/05/18 10:08:35;;;;;;;;;;;27.90;35.80;;;;;;21001735;28;20066;-79
2022/05/18 10:18:37;;;;;;;;;;;;;;;;;;21005328;28;19924;-68
2022/05/18 10:28:43;;;;;;;;;;;29.40;32.50;;;;;;21004594;28;19924;-59
2022/05/18 10:38:50;;;;;;;;;;;29.40;31.90;;;;;;20998635;28;20265;-58
2022/05/18 10:49:00;;;;;;;;;;;29.10;33.30;;;;;;20997022;28;19928;-57
2022/05/18 10:59:02;;;;;;;;;;;;;;;;;;20996458;28;19925;-58
2022/05/18 11:09:05;;;;;;;;;;;29.70;32.90;;;;;;20996838;28;20077;-59
2022/05/18 11:19:32;;;;;;;;;;;29.20;32.90;;;;;;21077837;28;19938;-58
2022/05/18 11:29:52;;;;;;;;;;;29.30;31.80;;;;;;21079344;28;20398;-58
2022/05/18 11:40:05;;;;;;;;;;;29.20;32.80;;;;;;21079456;28;19924;-60
2022/05/18 11:50:27;;;;;;;;;;;29.30;33.30;;;;;;21077229;28;19924;-59
2022/05/18 12:10:50;;;;;;;;;;;29.40;33.20;;;;;;21094548;28;19967;-71
2022/05/18 12:21:00;;;;;;;;;;;30.70;29.40;;;;;;21093922;28;19924;-71
2022/05/18 12:31:02;;;;;;;;;;;30.90;29.50;;;;;;21094435;28;19967;-72
2022/05/18 12:41:10;;;;;;;;;;;29.90;29.80;;;;;;21093252;28;20427;-72
2022/05/18 12:51:26;;;;;;;;;;;30.10;28.40;;;;;;21091742;28;19931;-71
2022/05/18 13:01:29;;;;;;;;;;;30.50;27.80;;;;;;21091968;28;19924;-70
2022/05/18 13:11:33;;;;;;;;;;;30.70;28.60;;;;;;21091480;28;20257;-71
2022/05/18 13:21:38;;;;;;;;;;;30.70;27.70;;;;;;21089331;28;19953;-70
2022/05/18 13:31:41;;;;;;;;;;;31.20;26.50;;;;;;21088151;28;20154;-71
2022/05/18 13:41:45;;;;;;;;;;;31.60;25.90;;;;;;21087674;28;19924;-72
2022/05/18 13:51:49;;;;;;;;;;;;;;;;;;21087769;28;20372;-71
2022/05/18 14:01:52;;;;;;;;;;;;;;;;;;21086624;28;19928;-72
2022/05/18 14:11:54;;;;;;;;;;;;;;;;;;21067153;28;19924;-71
2022/05/18 14:21:56;;;;;;;;;;;;;;;;;;21084234;28;20288;-72
2022/05/18 14:31:58;;;;;;;;;;;;;;;;;;21083566;28;19924;-72
2022/05/18 14:42:01;;;;;;;;;;;;;;;;;;21084565;28;19935;-70
2022/05/18 14:52:03;;;;;;;;;;;;;;;;;;21081599;28;20007;-72
2022/05/18 15:02:05;;;;;;;;;;;;;;;;;;21081798;28;19924;-72
2022/05/18 15:12:07;;;;;;;;;;;;;;;;;;21081004;28;19924;-73
2022/05/18 15:22:09;;;;;;;;;;;;;;;;;;21080982;28;19924;-74
2022/05/18 15:32:11;;;;;;;;;;;;;;;;;;21079640;28;19981;-74
2022/05/18 15:42:13;;;;;;;;;;;;;;;;;;21062262;28;19947;-71
2022/05/18 15:52:15;;;;;;;;;;;;;;;;;;21078924;28;19932;-67
2022/05/18 16:02:17;;;;;;;;;;;;;;;;;;21077656;28;19924;-67
2022/05/18 16:12:19;;;;;;;;;;;;;;;;;;21077441;28;19928;-65
2022/05/18 16:22:20;;;;;;;;;;;;;;;;;;21077474;28;19947;-63
2022/05/18 16:32:22;;;;;;;;;;;;;;;;;;21077078;28;20287;-60
2022/05/18 16:42:24;;;;;;;;;;;;;;;;;;21075655;28;20404;-61
2022/05/18 16:52:26;;;;;;;;;;;;;;;;;;21073941;28;19930;-59
2022/05/18 17:02:27;;;;;;;;;;;;;;;;;;21091533;28;19930;-60
2022/05/18 17:12:29;;;;;;;;;;;;;;;;;;21089579;28;19930;-66
2022/05/18 17:22:31;;;;;;;;;;;;;;;;;;21090856;28;19979;-66
2022/05/18 17:32:33;;;;;;;;;;;;;;;;;;21089145;28;20292;-60
2022/05/18 17:42:35;;;;;;;;;;;;;;;;;;21087020;28;19931;-67
2022/05/18 17:52:37;;;;;;;;;;;;;;;;;;21085638;28;20284;-63
2022/05/18 18:02:39;;;;;;;;;;;;;;;;;;21084986;28;19969;-62
2022/05/18 18:12:40;;;;;;;;;;;;;;;;;;21085428;28;19935;-62
2022/05/18 18:22:42;;;;;;;;;;;;;;;;;;21069619;28;19931;-63
2022/05/18 18:32:44;;;;;;;;;;;;;;;;;;21065789;28;20027;-63
2022/05/18 18:42:45;;;;;;;;;;;;;;;;;;21082672;28;20008;-64
2022/05/18 19:03:07;;;;;;;;;;;;;;;;;;21080362;28;20101;-69
2022/05/18 19:13:09;;;;;;;;;;;;;;;;;;21079084;28;19985;-66
2022/05/18 19:23:10;;;;;;;;;;;;;;;;;;21078585;28;19967;-62
2022/05/18 19:33:12;;;;;;;;;;;;;;;;;;21079457;28;19975;-64
2022/05/18 19:43:13;;;;;;;;;;;;;;;;;;21079383;28;19972;-69
2022/05/18 19:53:15;;;;;;;;;;;;;;;;;;21079310;28;20013;-63
2022/05/18 20:03:17;;;;;;;;;;;;;;;;;;21061667;28;19973;-63
2022/05/18 20:13:19;;;;;;;;;;;;;;;;;;21078660;28;20377;-63
2022/05/18 20:23:20;;;;;;;;;;;;;;;;;;21082215;28;19924;-66
2022/05/18 20:33:23;;;;;;;;;;;;;;;;;;21096465;28;19947;-62
2022/05/18 20:43:25;;;;;;;;;;;;;;;;;;21093108;28;19924;-64
2022/05/18 20:53:27;;;;;;;;;;;;;;;;;;21091926;28;19928;-63
2022/05/18 21:03:29;;;;;;;;;;;;;;;;;;21091568;28;20399;-65
2022/05/18 21:13:31;;;;;;;;;;;;;;;;;;21090489;28;19924;-67
2022/05/18 21:23:33;;;;;;;;;;;;;;;;;;21089701;28;19978;-64
2022/05/18 21:33:35;;;;;;;;;;;;;;;;;;21088882;28;19931;-62
2022/05/18 21:43:37;;;;;;;;;;;;;;;;;;21089979;28;20008;-63
2022/05/18 21:53:38;;;;;;;;;;;26.90;34.70;;;;;;21070581;28;19924;-62
2022/05/18 22:03:42;;;;;;;;;;;26.00;35.80;;;;;;21086786;28;19932;-63
2022/05/18 22:13:46;;;;;;;;;;;;;;;;;;21086364;28;19924;-65
2022/05/18 22:23:48;;;;;;;;;;;;;;;;;;21084998;28;20000;-62
2022/05/18 22:33:49;;;;;;;;;;;;;;;;;;21084669;28;19935;-62
2022/05/18 22:43:51;;;;;;;;;;;;;;;;;;21084114;28;19924;-63
2022/05/18 22:53:53;;;;;;;;;;;;;;;;;;21081604;28;19924;-64
2022/05/18 23:03:55;;;;;;;;;;;;;;;;;;21082955;28;19932;-61
2022/05/18 23:13:56;;;;;;;;;;;;;;;;;;21060960;28;19924;-63
2022/05/18 23:23:58;;;;;;;;;;;;;;;;;;21077646;28;19924;-62
2022/05/18 23:34:00;;;;;;;;;;;;;;;;;;21077623;28;20419;-60
2022/05/18 23:44:02;;;;;;;;;;;;;;;;;;21077520;28;20403;-63
2022/05/18 23:54:04;;;;;;;;;;;;;;;;;;21076687;28;19924;-65
